createdAt,value
2019-04-11T00:01:54.796Z,9.53
2019-04-11T00:06:49.899Z,9.67
2019-04-11T00:11:44.602Z,9.65
2019-04-11T00:16:39.486Z,9.61
2019-04-11T00:21:34.968Z,9.74
2019-04-11T00:26:30.576Z,9.79
2019-04-11T00:31:25.303Z,9.67
2019-04-11T00:36:20.115Z,9.53
2019-04-11T00:41:15.479Z,9.56
2019-04-11T00:46:10.493Z,9.52
2019-04-11T00:51:05.268Z,9.70
2019-04-11T00:55:59.934Z,9.41
2019-04-11T01:00:55.565Z,9.31
2019-04-11T01:05:50.373Z,9.36
2019-04-11T01:10:45.649Z,9.29
2019-04-11T01:15:42.813Z,9.00
2019-04-11T01:20:37.747Z,9.01
2019-04-11T01:25:32.714Z,8.95
2019-04-11T01:30:33.532Z,8.97
2019-04-11T01:35:28.988Z,8.82
2019-04-11T01:40:23.747Z,8.80
2019-04-11T01:45:21.218Z,8.81
2019-04-11T01:50:17.582Z,8.83
2019-04-11T01:55:12.613Z,8.83
2019-04-11T02:00:10.880Z,8.69
2019-04-11T02:05:16.752Z,8.74
2019-04-11T02:10:13.021Z,8.68
2019-04-11T02:15:10.188Z,8.55
2019-04-11T02:20:09.111Z,8.60
2019-04-11T02:25:12.275Z,8.46
2019-04-11T02:30:11.202Z,8.46
2019-04-11T02:35:08.476Z,8.16
2019-04-11T02:40:05.413Z,8.14
2019-04-11T02:45:18.063Z,8.06
2019-04-11T02:49:59.148Z,8.11
2019-04-11T02:54:54.510Z,8.18
2019-04-11T02:59:51.141Z,8.00
2019-04-11T03:04:47.958Z,8.11
2019-04-11T03:09:44.067Z,8.11
2019-04-11T03:15:01.047Z,8.06
2019-04-11T03:19:47.629Z,8.06
2019-04-11T03:24:35.230Z,7.99
2019-04-11T03:29:30.510Z,8.05
2019-04-11T03:35:17.004Z,7.95
2019-04-11T03:39:48.972Z,7.97
2019-04-11T03:44:25.431Z,7.89
2019-04-11T03:49:27.847Z,7.89
2019-04-11T03:54:13.684Z,7.81
2019-04-11T03:59:13.692Z,7.85
2019-04-11T04:04:06.622Z,7.77
2019-04-11T04:09:02.748Z,7.85
2019-04-11T04:14:02.178Z,7.97
2019-04-11T04:19:11.726Z,7.84
2019-04-11T04:24:08.617Z,7.98
2019-04-11T04:29:04.443Z,7.84
2019-04-11T04:33:59.647Z,7.78
2019-04-11T04:38:57.168Z,7.82
2019-04-11T04:43:52.894Z,7.97
2019-04-11T04:48:51.019Z,7.78
2019-04-11T04:53:45.297Z,7.83
2019-04-11T04:58:42.007Z,7.89
2019-04-11T05:03:37.899Z,7.82
2019-04-11T05:08:34.574Z,7.91
2019-04-11T05:13:30.195Z,7.94
2019-04-11T05:18:25.882Z,7.96
2019-04-11T05:23:21.409Z,8.11
2019-04-11T05:28:16.147Z,7.91
2019-04-11T05:33:11.614Z,7.68
2019-04-11T05:38:06.656Z,7.81
2019-04-11T05:43:01.818Z,7.74
2019-04-11T05:47:58.321Z,7.62
2019-04-11T05:52:54.585Z,7.45
2019-04-11T05:57:50.629Z,7.58
2019-04-11T06:02:47.081Z,7.57
2019-04-11T06:07:55.955Z,7.32
2019-04-11T06:12:51.154Z,7.37
2019-04-11T06:17:48.174Z,7.25
2019-04-11T06:22:45.597Z,7.16
2019-04-11T06:27:42.814Z,7.21
2019-04-11T06:32:38.385Z,7.08
2019-04-11T06:37:41.341Z,7.27
2019-04-11T06:42:47.867Z,7.32
2019-04-11T06:47:47.594Z,7.39
2019-04-11T06:52:45.145Z,7.31
2019-04-11T06:57:42.425Z,7.36
2019-04-11T07:02:38.980Z,7.41
2019-04-11T07:07:35.657Z,7.33
2019-04-11T07:12:35.682Z,7.30
2019-04-11T07:17:48.505Z,7.38
2019-04-11T07:23:01.595Z,7.40
2019-04-11T07:28:10.599Z,7.46
2019-04-11T07:33:24.351Z,7.49
2019-04-11T07:38:22.819Z,7.63
2019-04-11T07:43:19.526Z,7.74
2019-04-11T07:48:22.056Z,7.61
2019-04-11T07:53:19.626Z,7.62
2019-04-11T07:58:23.790Z,7.55
2019-04-11T08:03:26.023Z,7.34
2019-04-11T08:08:26.565Z,7.33
2019-04-11T08:13:40.952Z,7.24
2019-04-11T08:18:46.109Z,7.14
2019-04-11T08:23:43.545Z,7.09
2019-04-11T08:28:39.313Z,7.08
2019-04-11T08:33:35.007Z,7.04
2019-04-11T08:38:32.238Z,7.22
2019-04-11T08:43:37.465Z,7.30
2019-04-11T08:48:35.055Z,7.36
2019-04-11T08:53:48.992Z,7.53
2019-04-11T08:59:09.098Z,7.58
2019-04-11T09:04:09.997Z,7.65
2019-04-11T09:09:11.249Z,7.51
2019-04-11T09:14:15.751Z,7.57
2019-04-11T09:19:18.843Z,7.76
2019-04-11T09:24:30.534Z,7.62
2019-04-11T09:29:36.140Z,7.96
2019-04-11T09:34:35.654Z,7.82
2019-04-11T09:39:39.238Z,8.10
2019-04-11T09:44:39.299Z,8.21
2019-04-11T09:49:37.608Z,8.36
2019-04-11T09:54:50.606Z,8.63
2019-04-11T10:00:01.829Z,9.01
2019-04-11T10:04:59.986Z,9.14
2019-04-11T10:10:02.593Z,9.42
2019-04-11T10:14:57.734Z,10.11
2019-04-11T10:19:56.140Z,10.16
2019-04-11T10:25:01.567Z,10.17
2019-04-11T10:30:00.929Z,10.55
2019-04-11T10:35:00.167Z,10.76
2019-04-11T10:40:17.722Z,10.93
2019-04-11T10:45:32.395Z,10.28
2019-04-11T10:50:42.377Z,10.09
2019-04-11T10:55:49.623Z,9.88
2019-04-11T11:00:48.749Z,10.08
2019-04-11T11:05:45.115Z,10.48
2019-04-11T11:10:40.460Z,10.84
2019-04-11T11:15:36.230Z,11.39
2019-04-11T11:20:55.745Z,11.37
2019-04-11T11:25:53.396Z,11.88
2019-04-11T11:30:49.719Z,11.48
2019-04-11T11:35:50.266Z,11.31
2019-04-11T11:41:03.869Z,11.76
2019-04-11T11:46:00.959Z,11.30
2019-04-11T11:50:57.091Z,11.36
2019-04-11T11:55:53.622Z,11.41
2019-04-11T12:00:56.133Z,11.67
2019-04-11T12:05:53.754Z,11.67
2019-04-11T12:10:51.441Z,11.77
2019-04-11T12:15:51.143Z,11.40
2019-04-11T12:20:51.295Z,11.51
2019-04-11T12:25:47.641Z,11.35
2019-04-11T12:30:44.159Z,11.48
2019-04-11T12:35:58.939Z,11.67
2019-04-11T12:41:10.993Z,11.25
2019-04-11T12:46:29.759Z,11.34
2019-04-11T12:51:21.674Z,11.31
2019-04-11T12:56:34.048Z,11.52
2019-04-11T13:01:42.596Z,11.71
2019-04-11T13:06:40.133Z,11.74
2019-04-11T13:11:46.510Z,11.80
2019-04-11T13:16:48.744Z,11.37
2019-04-11T13:21:45.664Z,11.59
2019-04-11T13:27:09.834Z,11.17
2019-04-11T13:32:30.757Z,11.77
2019-04-11T13:37:51.914Z,11.88
2019-04-11T13:43:04.702Z,12.21
2019-04-11T13:48:06.880Z,11.94
2019-04-11T13:53:19.276Z,12.09
2019-04-11T13:58:15.679Z,11.84
2019-04-11T14:03:17.435Z,12.00
2019-04-11T14:08:17.970Z,12.03
2019-04-11T14:13:13.298Z,12.11
2019-04-11T14:18:15.739Z,11.75
2019-04-11T14:23:18.135Z,11.77
2019-04-11T14:28:17.339Z,12.13
2019-04-11T14:33:12.230Z,11.71
2019-04-11T14:38:11.617Z,11.51
2019-04-11T14:43:13.629Z,11.66
2019-04-11T14:48:19.774Z,11.51
2019-04-11T14:53:29.598Z,11.49
2019-04-11T14:58:32.110Z,11.60
2019-04-11T15:03:31.289Z,11.43
2019-04-11T15:08:38.678Z,11.47
2019-04-11T15:13:34.274Z,11.07
2019-04-11T15:18:29.579Z,11.02
2019-04-11T15:23:26.380Z,10.94
2019-04-11T15:28:25.741Z,10.95
2019-04-11T15:33:20.339Z,10.88
2019-04-11T15:38:35.249Z,10.88
2019-04-11T15:43:47.824Z,10.70
2019-04-11T15:48:42.267Z,10.64
2019-04-11T15:53:45.523Z,10.72
2019-04-11T15:58:47.515Z,10.58
2019-04-11T16:03:42.172Z,10.55
2019-04-11T16:08:39.518Z,10.45
2019-04-11T16:13:42.524Z,10.38
2019-04-11T16:18:41.566Z,10.52
2019-04-11T16:23:47.698Z,10.32
2019-04-11T16:28:59.768Z,10.27
2019-04-11T16:34:07.746Z,10.05
2019-04-11T16:39:02.162Z,10.16
2019-04-11T16:44:10.678Z,10.03
2019-04-11T16:49:05.464Z,10.01
2019-04-11T16:54:00.107Z,10.01
2019-04-11T16:58:54.739Z,10.03
2019-04-11T17:03:49.398Z,10.01
2019-04-11T17:08:45.725Z,10.07
2019-04-11T17:13:40.374Z,9.96
2019-04-11T17:18:35.118Z,10.01
2019-04-11T17:23:29.853Z,10.06
2019-04-11T17:28:24.516Z,10.16
2019-04-11T17:33:19.222Z,10.27
2019-04-11T17:38:13.855Z,10.33
2019-04-11T17:43:08.577Z,10.30
2019-04-11T17:48:03.343Z,10.33
2019-04-11T17:52:58.153Z,10.35
2019-04-11T17:57:54.907Z,10.40
2019-04-11T18:02:49.244Z,10.53
2019-04-11T18:07:47.096Z,10.55
2019-04-11T18:12:40.424Z,10.55
2019-04-11T18:17:35.574Z,10.59
2019-04-11T18:22:30.416Z,10.54
2019-04-11T18:27:25.265Z,10.55
2019-04-11T18:32:19.979Z,10.52
2019-04-11T18:37:14.629Z,10.52
2019-04-11T18:42:09.404Z,10.50
2019-04-11T18:47:04.192Z,10.51
2019-04-11T18:51:58.835Z,10.49
2019-04-11T18:56:53.720Z,10.40
2019-04-11T19:01:48.529Z,10.31
2019-04-11T19:06:43.698Z,10.25
2019-04-11T19:11:38.731Z,10.14
2019-04-11T19:16:33.378Z,10.03
2019-04-11T19:21:28.080Z,9.88
2019-04-11T19:26:23.114Z,9.77
2019-04-11T19:31:17.804Z,9.60
2019-04-11T19:36:12.898Z,9.55
2019-04-11T19:41:07.791Z,9.45
2019-04-11T19:46:02.554Z,9.39
2019-04-11T19:50:58.990Z,9.35
2019-04-11T19:55:58.144Z,9.54
2019-04-11T20:00:53.872Z,9.43
2019-04-11T20:05:48.854Z,9.40
2019-04-11T20:10:44.383Z,9.33
2019-04-11T20:16:41.459Z,9.33
2019-04-11T20:21:30.492Z,9.17
2019-04-11T20:26:25.166Z,9.21
2019-04-11T20:31:19.716Z,9.17
2019-04-11T20:36:14.285Z,9.27
2019-04-11T20:41:09.547Z,9.22
2019-04-11T20:46:04.357Z,9.20
2019-04-11T20:50:59.065Z,9.08
2019-04-11T20:55:53.637Z,9.03
2019-04-11T21:00:50.652Z,8.98
2019-04-11T21:05:44.529Z,9.01
2019-04-11T21:10:39.089Z,8.93
2019-04-11T21:15:33.655Z,8.75
2019-04-11T21:20:28.217Z,8.92
2019-04-11T21:25:22.800Z,8.73
2019-04-11T21:30:17.587Z,8.76
2019-04-11T21:35:12.324Z,8.81
2019-04-11T21:40:08.423Z,8.71
2019-04-11T21:45:05.936Z,8.71
2019-04-11T21:49:59.396Z,8.68
2019-04-11T21:54:53.991Z,8.62
2019-04-11T21:59:51.279Z,8.47
2019-04-11T22:04:44.857Z,8.54
2019-04-11T22:09:39.479Z,8.50
2019-04-11T22:14:34.058Z,8.41
2019-04-11T22:19:33.513Z,8.42
2019-04-11T22:24:33.136Z,8.26
2019-04-11T22:29:32.808Z,8.23
2019-04-11T22:34:34.109Z,8.21
2019-04-11T22:39:31.489Z,8.27
2019-04-11T22:44:25.552Z,8.11
2019-04-11T22:49:21.118Z,8.11
2019-04-11T22:54:15.686Z,7.97
2019-04-11T22:59:13.745Z,7.95
2019-04-11T23:04:06.564Z,8.09
2019-04-11T23:09:01.104Z,8.02
2019-04-11T23:13:55.839Z,7.85
2019-04-11T23:18:50.404Z,7.84
2019-04-11T23:23:46.338Z,7.89
2019-04-11T23:28:46.736Z,7.64
2019-04-11T23:33:41.251Z,7.57
2019-04-11T23:38:39.227Z,7.50
2019-04-11T23:43:41.100Z,7.32
2019-04-11T23:48:35.896Z,7.36
2019-04-11T23:53:39.337Z,7.20
2019-04-11T23:58:39.404Z,7.07
